Time;durP1;ratioP1;P1;durP2;ratioP2;P2;SDS_P1;SDS_P2;PMS_P1;PMS_P2;Temp;Humidity;BMP_temperature;BMP_pressure;BME280_temperature;BME280_humidity;BME280_pressure;Samples;Min_cycle;Max_cycle;Signal;HPM_P1;HPM_P2
2023/02/10 00:02:17;;;;;;;;;;;;;;;-1.48;92.01;101048.66;4938424;29;19910;-68
2023/02/10 00:04:42;;;;;;;;;;;;;;;-1.48;91.52;101042.59;4939157;29;20262;-68
2023/02/10 00:07:08;;;;;;;;;;;;;;;-1.49;91.51;101030.47;4939017;29;20285;-69
2023/02/10 00:09:33;;;;;;;;;;;;;;;-1.53;91.36;101034.16;4920880;29;20071;-68
2023/02/10 00:12:01;;;;;;;;;;;;;;;-1.54;91.44;101011.56;4937953;29;19911;-70
2023/02/10 00:14:27;;;;;;;;;;;;;;;-1.52;91.87;101017.56;4937808;29;19957;-66
2023/02/10 00:16:53;;;;;;;;;;;;;;;-1.48;91.07;101006.03;4937874;29;19911;-68
2023/02/10 00:19:20;;;;;;;;;;;;;;;-1.42;90.66;100997.91;4937962;29;19914;-69
2023/02/10 00:21:45;;;;;;;;;;;;;;;-1.39;90.87;100995.13;4939864;29;19933;-69
2023/02/10 00:24:10;;;;;;;;;;;;;;;-1.38;90.07;100987.19;4921194;29;19911;-66
2023/02/10 00:26:36;;;;;;;;;;;;;;;-1.35;89.63;100983.56;4937612;29;19911;-70
2023/02/10 00:29:01;;;;;;;;;;;;;;;-1.32;88.54;100975.56;4920314;29;20025;-68
2023/02/10 00:31:26;;;;;;;;;;;;;;;-1.29;88.42;100971.03;4937486;29;19910;-67
2023/02/10 00:33:52;;;;;;;;;;;;;;;-1.30;88.86;100961.50;4937328;29;20403;-66
2023/02/10 00:36:17;;;;;;;;;;;;;;;-1.36;88.86;100961.84;4937532;29;19918;-66
2023/02/10 00:38:43;;;;;;;;;;;;;;;-1.37;88.93;100946.25;4936555;29;19911;-69
2023/02/10 00:41:09;;;;;;;;;;;;;;;-1.39;88.72;100953.31;4937389;29;19922;-66
2023/02/10 00:43:36;;;;;;;;;;;;;;;-1.35;89.06;100944.38;4937272;29;19997;-66
2023/02/10 00:46:01;;;;;;;;;;;;;;;-1.32;89.05;100937.22;4937274;29;19911;-65
2023/02/10 00:48:27;;;;;;;;;;;;;;;-1.33;89.32;100932.94;4936856;29;20326;-66
2023/02/10 00:50:52;;;;;;;;;;;;;;;-1.37;89.57;100925.34;4937489;29;19917;-67
2023/02/10 00:53:17;;;;;;;;;;;;;;;-1.40;90.42;100921.13;4937462;29;19914;-66
2023/02/10 00:55:43;;;;;;;;;;;;;;;-1.43;90.36;100913.47;4920132;29;20389;-68
2023/02/10 00:58:08;;;;;;;;;;;;;;;-1.44;90.26;100903.94;4936960;29;19922;-67
2023/02/10 01:00:33;;;;;;;;;;;;;;;-1.39;90.23;100916.75;4936961;29;19911;-67
2023/02/10 01:02:58;;;;;;;;;;;;;;;-1.41;90.43;100888.09;4919847;29;19958;-67
2023/02/10 01:05:24;;;;;;;;;;;;;;;-1.43;90.40;100889.94;4936907;29;19933;-64
2023/02/10 01:07:52;;;;;;;;;;;;;;;-1.41;90.47;100871.56;4936884;29;19915;-67
2023/02/10 01:10:17;;;;;;;;;;;;;;;-1.44;90.39;100869.97;4937184;29;19914;-69
2023/02/10 01:12:42;;;;;;;;;;;;;;;-1.48;90.73;100865.81;4936734;29;19957;-68
2023/02/10 01:15:08;;;;;;;;;;;;;;;-1.53;91.19;100857.41;4936746;29;19915;-69
2023/02/10 01:17:33;;;;;;;;;;;;;;;-1.46;90.75;100847.44;4936294;29;19910;-69
2023/02/10 01:19:59;;;;;;;;;;;;;;;-1.39;90.76;100838.38;4936601;29;20283;-65
2023/02/10 01:22:24;;;;;;;;;;;;;;;-1.37;90.51;100834.75;4936492;29;20390;-65
2023/02/10 01:24:49;;;;;;;;;;;;;;;-1.39;90.24;100827.94;4936545;29;20355;-67
2023/02/10 01:27:14;;;;;;;;;;;;;;;-1.40;89.76;100832.31;4936413;29;19918;-64
2023/02/10 01:29:40;;;;;;;;;;;;;;;-1.34;89.97;100831.13;4919376;29;20426;-68
2023/02/10 01:32:05;;;;;;;;;;;;;;;-1.35;89.47;100821.59;4936361;29;19918;-65
2023/02/10 01:34:30;;;;;;;;;;;;;;;-1.35;89.20;100821.59;4937275;29;19911;-68
2023/02/10 01:36:56;;;;;;;;;;;;;;;-1.31;89.51;100810.03;4937655;29;20355;-69
2023/02/10 01:39:21;;;;;;;;;;;;;;;-1.31;89.33;100810.88;4936346;29;20392;-66
2023/02/10 01:41:46;;;;;;;;;;;;;;;-1.34;89.38;100798.00;4936204;29;20010;-64
2023/02/10 01:44:20;;;;;;;;;;;;;;;-1.34;89.53;100781.47;4936004;29;19934;-67
2023/02/10 01:46:46;;;;;;;;;;;;;;;-1.30;89.59;100775.16;4936296;29;19910;-68
2023/02/10 01:49:14;;;;;;;;;;;;;;;-1.29;89.70;100769.84;4936167;29;19914;-64
2023/02/10 01:51:44;;;;;;;;;;;;;;;-1.24;89.37;100772.19;4936167;29;19910;-67
2023/02/10 01:54:13;;;;;;;;;;;;;;;-1.21;90.13;100764.16;4935910;29;19917;-67
2023/02/10 01:56:40;;;;;;;;;;;;;;;-1.21;89.26;100768.56;4936018;29;19922;-65
2023/02/10 01:59:06;;;;;;;;;;;;;;;-1.21;89.20;100763.31;4936210;29;19911;-67
2023/02/10 02:01:31;;;;;;;;;;;;;;;-1.23;89.43;100744.28;4935760;29;19910;-68
2023/02/10 02:03:57;;;;;;;;;;;;;;;-1.21;89.61;100745.88;4935891;29;20359;-69
2023/02/10 02:06:23;;;;;;;;;;;;;;;-1.14;89.56;100734.16;4935748;29;20346;-67
2023/02/10 02:08:51;;;;;;;;;;;;;;;-1.07;89.04;100725.03;4935749;29;20359;-66
2023/02/10 02:11:40;;;;;;;;;;;;;;;-1.12;89.50;100711.41;4935714;29;20363;-66
2023/02/10 02:14:05;;;;;;;;;;;;;;;-1.12;89.47;100715.78;4935730;29;19911;-65
2023/02/10 02:16:36;;;;;;;;;;;;;;;-1.16;89.43;100714.25;4936160;29;20370;-65
2023/02/10 02:19:01;;;;;;;;;;;;;;;-1.18;89.36;100711.72;4935475;29;19954;-66
2023/02/10 02:21:32;;;;;;;;;;;;;;;-1.21;89.20;100692.78;4935400;29;19966;-66
2023/02/10 02:24:07;;;;;;;;;;;;;;;-1.19;89.45;100693.53;4935474;29;19918;-64
2023/02/10 02:26:48;;;;;;;;;;;;;;;-1.25;90.41;100673.81;4935090;29;19910;-65
2023/02/10 02:29:14;;;;;;;;;;;;;;;-1.29;91.04;100667.09;4935619;29;19910;-65
2023/02/10 02:31:48;;;;;;;;;;;;;;;-1.32;91.74;100662.06;4935465;29;19965;-68
2023/02/10 02:34:13;;;;;;;;;;;;;;;-1.31;92.15;100650.69;4935373;29;19911;-66
2023/02/10 02:36:47;;;;;;;;;;;;;;;-1.30;92.22;100644.50;4935090;29;19917;-64
2023/02/10 02:39:13;;;;;;;;;;;;;;;-1.35;91.94;100641.34;4935411;29;20012;-64
2023/02/10 02:41:38;;;;;;;;;;;;;;;-1.37;92.05;100630.13;4935283;29;19954;-67
2023/02/10 02:44:05;;;;;;;;;;;;;;;-1.39;91.59;100627.63;4935300;29;19949;-66
2023/02/10 02:46:33;;;;;;;;;;;;;;;-1.45;91.51;100614.03;4935273;29;19917;-67
2023/02/10 02:49:21;;;;;;;;;;;;;;;-1.44;91.52;100613.16;4935422;29;20036;-68
2023/02/10 02:51:57;;;;;;;;;;;;;;;-1.40;91.02;100610.25;4934330;29;19914;-70
2023/02/10 02:54:22;;;;;;;;;;;;;;;-1.37;91.51;100606.63;4935159;29;19918;-68
2023/02/10 02:56:48;;;;;;;;;;;;;;;-1.35;91.27;100607.38;4935139;29;19918;-65
2023/02/10 02:59:16;;;;;;;;;;;;;;;-1.34;91.30;100606.44;4934949;29;19911;-66
2023/02/10 03:01:54;;;;;;;;;;;;;;;-1.38;91.42;100594.50;4937298;29;19918;-68
2023/02/10 03:04:20;;;;;;;;;;;;;;;-1.40;91.74;100591.97;4939253;29;20310;-68
2023/02/10 03:06:46;;;;;;;;;;;;;;;-1.40;92.02;100576.31;4938898;29;20005;-68
2023/02/10 03:09:13;;;;;;;;;;;;;;;-1.42;91.91;100569.50;4938911;29;19914;-67
2023/02/10 03:11:38;;;;;;;;;;;;;;;-1.46;91.54;100555.75;4939141;29;20253;-68
2023/02/10 03:14:04;;;;;;;;;;;;;;;-1.38;91.19;100552.69;4939393;29;19917;-64
2023/02/10 03:16:29;;;;;;;;;;;;;;;-1.33;90.98;100540.19;4938730;29;20397;-64
2023/02/10 03:18:54;;;;;;;;;;;;;;;-1.35;90.67;100526.38;4938749;29;19911;-65
2023/02/10 03:21:20;;;;;;;;;;;;;;;-1.30;90.33;100513.88;4939228;29;19954;-69
2023/02/10 03:23:45;;;;;;;;;;;;;;;-1.31;90.93;100506.97;4938991;29;20275;-68
2023/02/10 03:26:10;;;;;;;;;;;;;;;-1.30;90.47;100509.50;4938579;29;19911;-67
2023/02/10 03:28:36;;;;;;;;;;;;;;;-1.33;90.54;100494.00;4938512;29;19911;-67
2023/02/10 03:31:02;;;;;;;;;;;;;;;-1.28;90.44;100480.66;4938274;29;19976;-65
2023/02/10 03:33:28;;;;;;;;;;;;;;;-1.34;90.65;100473.22;4938685;29;20348;-67
2023/02/10 03:35:53;;;;;;;;;;;;;;;-1.34;90.89;100475.81;4938600;29;19969;-65
2023/02/10 03:38:18;;;;;;;;;;;;;;;-1.35;91.18;100451.47;4938380;29;19921;-66
2023/02/10 03:40:43;;;;;;;;;;;;;;;-1.36;90.99;100441.97;4938385;29;20300;-65
2023/02/10 03:43:09;;;;;;;;;;;;;;;-1.35;90.89;100442.78;4938348;29;19910;-66
2023/02/10 03:45:34;;;;;;;;;;;;;;;-1.36;91.17;100426.28;4938017;29;19911;-67
2023/02/10 03:47:59;;;;;;;;;;;;;;;-1.34;91.62;100418.34;4938696;29;19918;-67
2023/02/10 03:50:25;;;;;;;;;;;;;;;-1.33;91.52;100422.63;4921297;29;19911;-67
2023/02/10 03:52:56;;;;;;;;;;;;;;;-1.31;91.47;100412.94;4938504;29;19914;-66
2023/02/10 03:55:22;;;;;;;;;;;;;;;-1.27;91.40;100406.56;4938683;29;19992;-64
2023/02/10 03:57:48;;;;;;;;;;;;;;;-1.30;91.70;100405.00;4937904;29;20363;-66
2023/02/10 04:00:14;;;;;;;;;;;;;;;-1.29;91.55;100405.84;4937687;29;19917;-67
2023/02/10 04:02:39;;;;;;;;;;;;;;;-1.29;92.08;100411.91;4938314;29;19915;-65
2023/02/10 04:05:04;;;;;;;;;;;;;;;-1.27;91.83;100394.34;4938136;29;20275;-66
2023/02/10 04:07:32;;;;;;;;;;;;;;;-1.24;91.61;100388.09;4939169;29;19921;-69
2023/02/10 04:10:23;;;;;;;;;;;;;;;-1.25;91.54;100391.63;4940282;29;20038;-69
2023/02/10 04:12:49;;;;;;;;;;;;;;;-1.25;nan;100381.19;4937101;29;19914;-68
2023/02/10 04:15:15;;;;;;;;;;;;;;;-1.24;91.84;100364.56;4937835;29;20286;-69
2023/02/10 04:17:40;;;;;;;;;;;;;;;-1.24;92.09;100356.75;4937680;29;19915;-69
2023/02/10 04:20:06;;;;;;;;;;;;;;;-1.21;92.10;100348.69;4937779;29;19918;-65
2023/02/10 04:22:31;;;;;;;;;;;;;;;-1.21;91.89;100347.88;4936637;29;20001;-69
2023/02/10 04:24:57;;;;;;;;;;;;;;;-1.19;nan;100349.44;4936798;29;19917;-67
2023/02/10 04:27:22;;;;;;;;;;;;;;;-1.19;92.10;100354.66;4936210;29;19911;-67
2023/02/10 04:29:47;;;;;;;;;;;;;;;-1.22;92.57;100360.09;4936760;29;19910;-67
2023/02/10 04:32:13;;;;;;;;;;;;;;;-1.23;92.40;100363.63;4937272;29;19970;-65
2023/02/10 04:34:38;;;;;;;;;;;;;;;-1.19;92.26;100348.59;4919574;29;20282;-67
2023/02/10 04:37:03;;;;;;;;;;;;;;;-1.19;92.68;100344.22;4936375;29;19911;-66
2023/02/10 04:39:29;;;;;;;;;;;;;;;-1.16;92.23;100330.94;4937273;29;20267;-72
2023/02/10 04:41:54;;;;;;;;;;;;;;;-1.19;92.62;100317.25;4937169;29;19911;-65
2023/02/10 04:44:19;;;;;;;;;;;;;;;-1.22;93.18;100313.06;4937175;29;20305;-70
2023/02/10 04:46:44;;;;;;;;;;;;;;;-1.25;93.23;100302.81;4937308;29;19957;-68
2023/02/10 04:49:10;;;;;;;;;;;;;;;-1.19;93.62;100283.28;4937020;29;19977;-68
2023/02/10 04:51:35;;;;;;;;;;;;;;;-1.16;93.53;100275.25;4937151;29;20299;-67
2023/02/10 04:54:00;;;;;;;;;;;;;;;-1.12;93.74;100272.34;4936971;29;19914;-68
2023/02/10 04:56:26;;;;;;;;;;;;;;;-1.11;93.53;100255.75;4937173;29;20275;-65
2023/02/10 04:58:51;;;;;;;;;;;;;;;-1.12;93.57;100250.63;4936663;29;20390;-71
2023/02/10 05:01:17;;;;;;;;;;;;;;;-1.06;93.44;100245.81;4937405;29;20319;-69
2023/02/10 05:03:42;;;;;;;;;;;;;;;-1.08;92.91;100237.25;4936732;29;20280;-65
2023/02/10 05:06:10;;;;;;;;;;;;;;;-1.02;93.16;100231.59;4936636;29;19911;-67
2023/02/10 05:08:40;;;;;;;;;;;;;;;-0.97;92.96;100228.66;4936876;29;20135;-69
2023/02/10 05:11:06;;;;;;;;;;;;;;;-1.04;93.20;100223.03;4937018;29;19911;-66
2023/02/10 05:13:31;;;;;;;;;;;;;;;-1.05;93.51;100212.69;4937207;29;19926;-66
2023/02/10 05:15:57;;;;;;;;;;;;;;;-1.01;92.93;100206.28;4937177;29;19911;-70
2023/02/10 05:18:22;;;;;;;;;;;;;;;-1.03;93.27;100206.41;4936591;29;19915;-72
2023/02/10 05:20:47;;;;;;;;;;;;;;;-1.03;93.33;100203.78;4936539;29;19915;-68
2023/02/10 05:23:13;;;;;;;;;;;;;;;-1.01;93.04;100212.38;4936218;29;19911;-65
2023/02/10 05:25:38;;;;;;;;;;;;;;;-0.98;93.44;100201.69;4936018;29;20355;-66
2023/02/10 05:28:03;;;;;;;;;;;;;;;-0.91;93.28;100190.81;4936422;29;19911;-64
2023/02/10 05:30:29;;;;;;;;;;;;;;;-0.89;92.79;100195.00;4936254;29;19917;-68
2023/02/10 05:32:54;;;;;;;;;;;;;;;-0.94;93.07;100177.03;4936074;29;19917;-69
2023/02/10 05:35:19;;;;;;;;;;;;;;;-0.96;93.75;100181.53;4936748;29;19911;-69
2023/02/10 05:37:45;;;;;;;;;;;;;;;-0.91;93.46;100162.91;4936855;29;20342;-66
2023/02/10 05:40:10;;;;;;;;;;;;;;;-0.87;93.37;100161.75;4936377;29;19914;-68
2023/02/10 05:42:36;;;;;;;;;;;;;;;-0.89;93.45;100153.19;4936504;29;19974;-70
2023/02/10 05:45:01;;;;;;;;;;;;;;;-0.86;93.56;100142.53;4936785;29;19911;-68
2023/02/10 05:47:28;;;;;;;;;;;;;;;-0.87;93.91;100133.00;4919315;29;19924;-67
2023/02/10 05:49:53;;;;;;;;;;;;;;;-0.90;94.91;100135.00;4936155;29;20422;-65
2023/02/10 05:52:18;;;;;;;;;;;;;;;-0.95;95.72;100123.06;4936063;29;19915;-68
2023/02/10 05:55:09;;;;;;;;;;;;;;;-0.96;96.00;100121.41;4923252;29;19926;-66
2023/02/10 05:57:34;;;;;;;;;;;;;;;-0.98;95.99;100107.59;4904263;29;19915;-68
2023/02/10 05:59:59;;;;;;;;;;;;;;;-0.95;95.64;100102.16;4935950;29;19911;-65
2023/02/10 06:02:25;;;;;;;;;;;;;;;-0.93;95.37;100102.91;4919385;29;19911;-66
2023/02/10 06:04:50;;;;;;;;;;;;;;;-0.91;95.28;100104.56;4903678;29;19919;-68
2023/02/10 06:07:17;;;;;;;;;;;;;;;-0.91;95.69;100092.34;4919547;29;19968;-68
2023/02/10 06:09:43;;;;;;;;;;;;;;;-0.88;95.89;100084.28;4935973;29;19914;-67
2023/02/10 06:12:08;;;;;;;;;;;;;;;-0.86;95.54;100086.81;4903356;29;19915;-66
2023/02/10 06:14:34;;;;;;;;;;;;;;;-0.84;96.22;100093.59;4936500;29;20377;-67
2023/02/10 06:17:01;;;;;;;;;;;;;;;-0.81;96.48;100088.16;4904046;29;20301;-67
2023/02/10 06:19:26;;;;;;;;;;;;;;;-0.81;96.30;100087.31;4919266;29;19918;-68
2023/02/10 06:21:52;;;;;;;;;;;;;;;-0.83;95.94;100074.34;4903550;29;19910;-67
2023/02/10 06:24:18;;;;;;;;;;;;;;;-0.80;96.17;100075.91;4919687;29;20019;-69
2023/02/10 06:26:44;;;;;;;;;;;;;;;-0.78;96.59;100072.25;4936683;29;19965;-67
2023/02/10 06:29:10;;;;;;;;;;;;;;;-0.79;97.35;100049.66;4918807;29;19958;-70
2023/02/10 06:31:35;;;;;;;;;;;;;;;-0.78;97.26;100050.50;4936028;29;19910;-68
2023/02/10 06:34:01;;;;;;;;;;;;;;;-0.81;97.64;100045.50;4936743;29;19982;-73
2023/02/10 06:36:27;;;;;;;;;;;;;;;-0.83;97.78;100032.53;4935554;29;19919;-73
2023/02/10 06:38:55;;;;;;;;;;;;;;;-0.80;98.11;100031.47;4920087;29;19911;-68
2023/02/10 06:41:21;;;;;;;;;;;;;;;-0.84;97.80;100030.84;4936879;29;19911;-72
2023/02/10 06:43:47;;;;;;;;;;;;;;;-0.82;98.52;100025.53;4918945;29;20010;-66
2023/02/10 06:46:15;;;;;;;;;;;;;;;-0.77;98.05;100023.41;4918826;29;19914;-71
2023/02/10 06:48:40;;;;;;;;;;;;;;;-0.77;97.81;100020.81;4936505;29;19910;-67
2023/02/10 06:51:05;;;;;;;;;;;;;;;-0.75;97.48;100004.06;4934497;29;19918;-65
2023/02/10 06:53:31;;;;;;;;;;;;;;;-0.79;97.65;100013.06;4917653;29;19919;-69
2023/02/10 06:55:57;;;;;;;;;;;;;;;-0.79;97.97;100013.06;4935024;29;19957;-65
2023/02/10 06:58:23;;;;;;;;;;;;;;;-0.76;97.49;100007.63;4922110;29;19911;-66
2023/02/10 07:00:49;;;;;;;;;;;;;;;-0.69;98.20;99987.09;4942904;29;19922;-67
2023/02/10 07:03:14;;;;;;;;;;;;;;;-0.65;97.51;99980.69;4925599;29;19911;-70
2023/02/10 07:05:40;;;;;;;;;;;;;;;-0.65;97.33;99981.53;4942639;29;20005;-68
2023/02/10 07:08:10;;;;;;;;;;;;;;;-0.64;97.42;99975.34;4943471;29;19946;-67
2023/02/10 07:10:36;;;;;;;;;;;;;;;-0.60;96.85;99970.72;4923055;29;19922;-71
2023/02/10 07:13:01;;;;;;;;;;;;;;;-0.55;97.16;99952.94;4935336;29;19910;-71
2023/02/10 07:15:26;;;;;;;;;;;;;;;-0.51;96.61;99950.94;4935194;29;19910;-73
2023/02/10 07:17:52;;;;;;;;;;;;;;;-0.53;96.33;99958.91;4935308;29;19918;-70
2023/02/10 07:20:21;;;;;;;;;;;;;;;-0.50;96.57;99956.06;4935299;29;20018;-69
2023/02/10 07:22:46;;;;;;;;;;;;;;;-0.51;96.47;99954.38;4935073;29;19958;-73
2023/02/10 07:25:12;;;;;;;;;;;;;;;-0.46;96.39;99938.34;4937981;29;19950;-67
2023/02/10 07:27:37;;;;;;;;;;;;;;;-0.48;96.46;99933.25;4937851;29;19918;-68
2023/02/10 07:30:02;;;;;;;;;;;;;;;-0.42;96.75;99937.19;4918768;29;20001;-68
2023/02/10 07:32:28;;;;;;;;;;;;;;;-0.36;96.35;99937.56;4935445;29;19949;-67
2023/02/10 07:34:53;;;;;;;;;;;;;;;-0.28;96.45;99944.03;4934770;29;19911;-67
2023/02/10 07:37:19;;;;;;;;;;;;;;;-0.32;96.44;99919.84;4935172;29;19918;-68
2023/02/10 07:39:44;;;;;;;;;;;;;;;-0.25;96.75;99912.41;4935295;29;19954;-73
2023/02/10 07:42:09;;;;;;;;;;;;;;;-0.15;96.50;99902.91;4935043;29;20010;-70
2023/02/10 07:44:34;;;;;;;;;;;;;;;-0.09;96.03;99890.19;4934790;29;19910;-69
2023/02/10 07:47:00;;;;;;;;;;;;;;;-0.18;96.57;99884.81;4919351;29;19914;-65
2023/02/10 07:49:26;;;;;;;;;;;;;;;-0.17;96.33;99869.00;4939633;29;19958;-66
2023/02/10 07:51:52;;;;;;;;;;;;;;;-0.23;96.80;99874.69;4940106;29;20336;-67
2023/02/10 07:54:17;;;;;;;;;;;;;;;-0.21;97.23;99877.19;4938396;29;19950;-69
2023/02/10 07:56:46;;;;;;;;;;;;;;;-0.20;96.85;99863.16;4939357;29;19945;-71
2023/02/10 07:59:11;;;;;;;;;;;;;;;-0.15;97.02;99864.47;4938386;29;19910;-72
2023/02/10 08:01:41;;;;;;;;;;;;;;;-0.21;97.27;99861.50;4938167;29;19933;-70
2023/02/10 08:04:07;;;;;;;;;;;;;;;-0.22;97.67;99849.38;4937993;29;19911;-68
2023/02/10 08:06:33;;;;;;;;;;;;;;;-0.28;97.34;99836.75;4937836;29;19937;-69
2023/02/10 08:08:59;;;;;;;;;;;;;;;-0.29;97.98;99829.81;4942653;29;19974;-66
2023/02/10 08:11:25;;;;;;;;;;;;;;;-0.26;97.68;99842.69;4910507;29;19933;-69
2023/02/10 08:13:53;;;;;;;;;;;;;;;-0.23;98.00;99832.00;4928079;29;19969;-71
2023/02/10 08:16:19;;;;;;;;;;;;;;;-0.12;97.49;99830.22;4942949;29;19989;-66
2023/02/10 08:18:47;;;;;;;;;;;;;;;0.06;96.56;99816.69;4944574;29;19911;-69
2023/02/10 08:21:12;;;;;;;;;;;;;;;0.20;95.68;99826.91;4928070;29;20355;-71
2023/02/10 08:23:38;;;;;;;;;;;;;;;0.39;95.15;99794.88;4912708;29;19915;-69
2023/02/10 08:26:05;;;;;;;;;;;;;;;0.69;94.47;99802.91;4928724;29;19910;-69
2023/02/10 08:28:31;;;;;;;;;;;;;;;0.94;93.31;99783.41;4944214;29;20278;-69
2023/02/10 08:31:00;;;;;;;;;;;;;;;0.96;92.04;99791.16;4910956;29;19921;-70
2023/02/10 08:33:25;;;;;;;;;;;;;;;0.79;92.55;99777.63;4943227;29;19965;-70
2023/02/10 08:35:51;;;;;;;;;;;;;;;0.74;92.92;99778.94;4926360;29;19914;-69
2023/02/10 08:38:19;;;;;;;;;;;;;;;0.62;93.38;99770.31;4944971;29;20248;-70
2023/02/10 08:40:56;;;;;;;;;;;;;;;0.58;93.30;99758.41;4927724;29;19911;-67
2023/02/10 08:43:22;;;;;;;;;;;;;;;0.56;93.87;99770.78;4927825;29;19911;-69
2023/02/10 08:45:53;;;;;;;;;;;;;;;0.57;93.35;99756.72;4912222;29;19910;-71
2023/02/10 08:48:21;;;;;;;;;;;;;;;0.58;93.55;99751.38;4945893;29;20366;-68
2023/02/10 08:50:46;;;;;;;;;;;;;;;0.62;93.53;99746.72;4929820;29;19911;-67
2023/02/10 08:53:15;;;;;;;;;;;;;;;0.54;95.01;99749.09;4929164;29;19911;-66
2023/02/10 08:55:40;;;;;;;;;;;;;;;0.50;95.63;99737.22;4920840;29;19942;-68
2023/02/10 08:58:09;;;;;;;;;;;;;;;0.59;96.38;99726.00;4936639;29;20379;-67
2023/02/10 09:00:34;;;;;;;;;;;;;;;0.63;95.72;99727.41;4921255;29;19954;-70
2023/02/10 09:03:00;;;;;;;;;;;;;;;0.68;95.56;99720.00;4946280;29;19911;-66
2023/02/10 09:05:29;;;;;;;;;;;;;;;0.66;95.73;99716.69;4932776;29;19911;-67
2023/02/10 09:07:55;;;;;;;;;;;;;;;0.72;96.33;99710.09;4915923;29;19954;-70
2023/02/10 09:10:22;;;;;;;;;;;;;;;0.86;95.98;99713.25;4926538;29;19915;-70
2023/02/10 09:12:54;;;;;;;;;;;;;;;0.74;96.90;99714.25;4954029;29;19966;-69
2023/02/10 09:15:20;;;;;;;;;;;;;;;0.74;97.58;99709.03;4917744;29;19915;-69
2023/02/10 09:17:55;;;;;;;;;;;;;;;0.68;98.62;99706.91;4951221;29;19973;-69
2023/02/10 09:20:21;;;;;;;;;;;;;;;0.55;99.07;99698.38;4936572;29;19910;-70
2023/02/10 09:22:52;;;;;;;;;;;;;;;0.39;100.00;99697.97;4935439;29;20415;-69
2023/02/10 09:25:17;;;;;;;;;;;;;;;0.25;100.00;99712.16;4919345;29;19934;-69
2023/02/10 09:27:47;;;;;;;;;;;;;;;0.26;100.00;99704.16;4950475;29;19926;-68
2023/02/10 09:30:44;;;;;;;;;;;;;;;0.22;100.00;99702.75;4936734;29;20417;-71
2023/02/10 09:33:11;;;;;;;;;;;;;;;0.17;100.00;99701.47;4919256;29;19918;-69
2023/02/10 09:35:43;;;;;;;;;;;;;;;0.21;100.00;99692.41;4914904;29;19929;-72
2023/02/10 09:38:10;;;;;;;;;;;;;;;0.11;100.00;99687.09;4915768;29;20402;-68
2023/02/10 09:40:45;;;;;;;;;;;;;;;0.03;100.00;99671.16;4948788;29;19911;-71
2023/02/10 09:43:25;;;;;;;;;;;;;;;0.08;100.00;99669.00;4915186;29;20359;-69
2023/02/10 09:46:03;;;;;;;;;;;;;;;0.16;100.00;99656.13;4945548;29;19982;-75
2023/02/10 09:48:35;;;;;;;;;;;;;;;0.18;100.00;99648.97;4927720;29;19910;-69
2023/02/10 09:51:06;;;;;;;;;;;;;;;0.17;100.00;99665.63;4926741;29;19942;-64
2023/02/10 09:53:31;;;;;;;;;;;;;;;0.12;100.00;99646.84;4916275;29;19914;-68
2023/02/10 09:56:01;;;;;;;;;;;;;;;0.00;100.00;99655.69;4932250;29;20397;-73
2023/02/10 09:58:27;;;;;;;;;;;;;;;-0.04;100.00;99649.84;4950331;29;19914;-74
2023/02/10 10:00:59;;;;;;;;;;;;;;;-0.12;100.00;99646.19;4937650;29;19982;-68
2023/02/10 10:03:28;;;;;;;;;;;;;;;-0.11;100.00;99637.38;4937119;29;19906;-77
2023/02/10 10:06:04;;;;;;;;;;;;;;;-0.17;100.00;99632.66;4935220;29;19911;-70
2023/02/10 10:08:38;;;;;;;;;;;;;;;-0.11;100.00;99640.84;4918325;29;19919;-69
2023/02/10 10:11:09;;;;;;;;;;;;;;;-0.17;100.00;99614.31;4948701;29;19911;-71
2023/02/10 10:13:36;;;;;;;;;;;;;;;-0.15;100.00;99615.88;4933851;29;19910;-73
2023/02/10 10:16:15;;;;;;;;;;;;;;;-0.14;100.00;99612.28;4931693;29;19918;-72
2023/02/10 10:18:49;;;;;;;;;;;;;;;-0.10;100.00;99616.31;4924841;29;19917;-71
2023/02/10 10:21:15;;;;;;;;;;;;;;;-0.15;100.00;99615.88;4944028;29;19911;-70
2023/02/10 10:23:59;;;;;;;;;;;;;;;-0.22;100.00;99593.78;4927701;29;19950;-70
2023/02/10 10:26:46;;;;;;;;;;;;;;;-0.27;100.00;99605.56;4918584;29;19943;-71
2023/02/10 10:29:31;;;;;;;;;;;;;;;-0.35;100.00;99591.28;4919807;29;19995;-72
2023/02/10 10:32:27;;;;;;;;;;;;;;;-0.36;100.00;99592.22;4953699;29;19938;-75
2023/02/10 10:34:54;;;;;;;;;;;;;;;-0.50;100.00;99595.13;4923783;29;19915;-72
2023/02/10 10:37:22;;;;;;;;;;;;;;;-0.58;100.00;99597.47;4941275;29;19914;-71
2023/02/10 10:43:43;;;;;;;;;;;;;;;-0.96;100.00;99588.22;4891737;29;19919;-68
2023/02/10 10:46:18;;;;;;;;;;;;;;;-0.91;100.00;99584.44;4936762;29;19911;-71
2023/02/10 10:48:43;;;;;;;;;;;;;;;-0.89;100.00;99578.13;4931985;29;19942;-71
2023/02/10 10:51:13;;;;;;;;;;;;;;;-0.85;100.00;99584.81;4936408;29;20330;-72
2023/02/10 10:53:41;;;;;;;;;;;;;;;-0.80;100.00;99572.22;4919032;29;19921;-70
2023/02/10 10:56:11;;;;;;;;;;;;;;;-0.85;100.00;99578.75;4935823;29;19918;-72
2023/02/10 10:58:39;;;;;;;;;;;;;;;-0.94;100.00;99573.25;4937621;29;19942;-71
2023/02/10 11:01:05;;;;;;;;;;;;;;;-0.95;100.00;99578.59;4929739;29;20271;-70
2023/02/10 11:03:31;;;;;;;;;;;;;;;-0.92;100.00;99588.81;4904274;29;19911;-69
2023/02/10 11:05:57;;;;;;;;;;;;;;;-1.00;100.00;99576.34;4929170;29;19911;-72
2023/02/10 11:08:34;;;;;;;;;;;;;;;-0.96;100.00;99569.94;4934309;29;19915;-71
2023/02/10 11:11:02;;;;;;;;;;;;;;;-0.97;100.00;99581.34;4934999;29;20287;-73
2023/02/10 11:13:35;;;;;;;;;;;;;;;-0.96;100.00;99572.56;4933010;29;19910;-73
2023/02/10 11:16:16;;;;;;;;;;;;;;;-1.01;100.00;99564.25;4930007;29;19911;-68
2023/02/10 11:18:54;;;;;;;;;;;;;;;-0.97;100.00;99573.50;4918826;29;19914;-68
2023/02/10 11:21:32;;;;;;;;;;;;;;;-142.41;100.00;64449.00;4935734;29;19915;-70
2023/02/10 11:24:00;;;;;;;;;;;;;;;-0.93;100.00;99569.69;4922867;29;19933;-68
2023/02/10 11:26:26;;;;;;;;;;;;;;;-0.92;100.00;99562.69;4926054;29;20008;-71
2023/02/10 11:28:52;;;;;;;;;;;;;;;-1.00;100.00;99562.47;4930615;29;19910;-69
2023/02/10 11:31:18;;;;;;;;;;;;;;;-1.01;100.00;99572.06;4946907;29;20390;-69
2023/02/10 11:33:54;;;;;;;;;;;;;;;-1.01;100.00;99566.84;4943622;29;19910;-67
2023/02/10 11:36:28;;;;;;;;;;;;;;;-142.41;100.00;64449.00;4922330;29;19914;-66
2023/02/10 11:38:59;;;;;;;;;;;;;;;-142.41;100.00;64449.00;4938322;29;20006;-66
2023/02/10 11:41:29;;;;;;;;;;;;;;;-142.41;100.00;64449.00;4938132;29;19911;-67
2023/02/10 11:43:54;;;;;;;;;;;;;;;-142.41;100.00;64449.00;4937805;29;19917;-70
2023/02/10 11:46:22;;;;;;;;;;;;;;;-142.41;100.00;64449.00;4938247;29;20009;-71
2023/02/10 11:48:53;;;;;;;;;;;;;;;-142.41;100.00;64449.00;4938203;29;19911;-71
2023/02/10 11:51:19;;;;;;;;;;;;;;;-142.41;100.00;64449.00;4920793;29;19915;-69
2023/02/10 11:53:45;;;;;;;;;;;;;;;-142.41;100.00;64449.00;4937657;29;19910;-69
2023/02/10 11:56:20;;;;;;;;;;;;;;;-142.41;100.00;64449.00;4921140;29;19911;-68
2023/02/10 11:58:59;;;;;;;;;;;;;;;-142.41;100.00;64449.00;4929417;29;19915;-69
2023/02/10 12:01:40;;;;;;;;;;;;;;;-142.41;100.00;64449.00;4918845;29;19918;-67
2023/02/10 12:04:27;;;;;;;;;;;;;;;-142.41;100.00;64449.00;4929002;29;20006;-70
2023/02/10 12:06:55;;;;;;;;;;;;;;;-142.41;100.00;64449.00;4935968;29;19921;-70
2023/02/10 12:09:38;;;;;;;;;;;;;;;-142.41;100.00;64449.00;4938687;29;19961;-67
2023/02/10 12:12:14;;;;;;;;;;;;;;;-142.41;100.00;64449.00;4938235;29;19921;-71
2023/02/10 12:14:51;;;;;;;;;;;;;;;-142.41;100.00;64449.00;4935973;29;19921;-73
2023/02/10 12:17:27;;;;;;;;;;;;;;;-142.41;100.00;64449.00;4933592;29;19918;-75
2023/02/10 12:20:05;;;;;;;;;;;;;;;-142.41;100.00;64449.00;4937853;29;19911;-71
2023/02/10 12:22:50;;;;;;;;;;;;;;;-142.41;100.00;64449.00;4937346;29;19958;-71
2023/02/10 12:25:34;;;;;;;;;;;;;;;-142.41;100.00;64449.00;4937839;29;20287;-74
2023/02/10 12:28:08;;;;;;;;;;;;;;;-142.41;100.00;64449.00;4936466;29;19915;-75
2023/02/10 12:30:47;;;;;;;;;;;;;;;-142.41;100.00;64449.00;4938825;29;19956;-75
2023/02/10 12:33:44;;;;;;;;;;;;;;;-142.41;100.00;64449.00;4902788;29;19967;-73
2023/02/10 12:36:12;;;;;;;;;;;;;;;-142.41;100.00;64449.00;4937921;29;19962;-71
2023/02/10 12:38:58;;;;;;;;;;;;;;;-142.41;100.00;64449.00;4920564;29;19997;-72
2023/02/10 12:41:42;;;;;;;;;;;;;;;-142.41;100.00;64449.00;4917766;29;19917;-73
2023/02/10 12:44:16;;;;;;;;;;;;;;;-142.41;100.00;64449.00;4938014;29;19910;-69
2023/02/10 12:47:20;;;;;;;;;;;;;;;-142.41;100.00;64449.00;4938445;29;20306;-76
2023/02/10 12:49:48;;;;;;;;;;;;;;;-142.41;100.00;64449.00;4881061;29;20330;-75